sensor_id;sensor_type;location;lat;lon;timestamp;P1;durP1;ratioP1;P2;durP2;ratioP2
18455;SDS011;9357;49.900;8.208;2023-10-08T00:00:34;5.80;;;4.10;;
18455;SDS011;9357;49.900;8.208;2023-10-08T00:02:14;6.33;;;3.90;;
18455;SDS011;9357;49.900;8.208;2023-10-08T00:03:53;6.00;;;3.90;;
18455;SDS011;9357;49.900;8.208;2023-10-08T00:05:33;6.90;;;3.90;;
18455;SDS011;9357;49.900;8.208;2023-10-08T00:07:07;6.23;;;3.73;;
18455;SDS011;9357;49.900;8.208;2023-10-08T00:08:40;6.40;;;3.97;;
18455;SDS011;9357;49.900;8.208;2023-10-08T00:10:12;6.27;;;3.93;;
18455;SDS011;9357;49.900;8.208;2023-10-08T00:11:45;5.73;;;3.97;;
18455;SDS011;9357;49.900;8.208;2023-10-08T00:13:22;6.00;;;3.67;;
18455;SDS011;9357;49.900;8.208;2023-10-08T00:14:56;6.03;;;4.00;;
18455;SDS011;9357;49.900;8.208;2023-10-08T00:16:31;6.73;;;3.67;;
18455;SDS011;9357;49.900;8.208;2023-10-08T00:18:05;5.43;;;3.80;;
18455;SDS011;9357;49.900;8.208;2023-10-08T00:19:38;6.57;;;3.90;;
18455;SDS011;9357;49.900;8.208;2023-10-08T00:21:10;5.47;;;3.77;;
18455;SDS011;9357;49.900;8.208;2023-10-08T00:22:50;4.80;;;3.60;;
18455;SDS011;9357;49.900;8.208;2023-10-08T00:24:25;7.07;;;3.97;;
18455;SDS011;9357;49.900;8.208;2023-10-08T00:25:58;7.40;;;4.13;;
18455;SDS011;9357;49.900;8.208;2023-10-08T00:27:35;6.83;;;4.20;;
18455;SDS011;9357;49.900;8.208;2023-10-08T00:29:10;6.63;;;4.10;;
18455;SDS011;9357;49.900;8.208;2023-10-08T00:30:48;8.73;;;4.20;;
18455;SDS011;9357;49.900;8.208;2023-10-08T00:32:24;6.30;;;3.60;;
18455;SDS011;9357;49.900;8.208;2023-10-08T00:33:56;5.87;;;4.10;;
18455;SDS011;9357;49.900;8.208;2023-10-08T00:35:29;4.13;;;3.50;;
18455;SDS011;9357;49.900;8.208;2023-10-08T00:37:02;5.83;;;3.57;;
18455;SDS011;9357;49.900;8.208;2023-10-08T00:38:40;4.97;;;3.90;;
18455;SDS011;9357;49.900;8.208;2023-10-08T00:40:15;6.33;;;4.30;;
18455;SDS011;9357;49.900;8.208;2023-10-08T00:41:52;6.20;;;4.00;;
18455;SDS011;9357;49.900;8.208;2023-10-08T00:43:30;8.23;;;3.87;;
18455;SDS011;9357;49.900;8.208;2023-10-08T00:45:06;6.80;;;3.63;;
18455;SDS011;9357;49.900;8.208;2023-10-08T00:46:40;6.17;;;3.77;;
18455;SDS011;9357;49.900;8.208;2023-10-08T00:48:19;5.87;;;3.87;;
18455;SDS011;9357;49.900;8.208;2023-10-08T00:49:59;6.70;;;4.13;;
18455;SDS011;9357;49.900;8.208;2023-10-08T00:51:39;8.30;;;4.40;;
18455;SDS011;9357;49.900;8.208;2023-10-08T00:53:12;7.37;;;3.77;;
18455;SDS011;9357;49.900;8.208;2023-10-08T00:54:52;5.17;;;3.93;;
18455;SDS011;9357;49.900;8.208;2023-10-08T00:56:38;5.47;;;3.73;;
18455;SDS011;9357;49.900;8.208;2023-10-08T00:58:21;7.07;;;4.20;;
18455;SDS011;9357;49.900;8.208;2023-10-08T00:59:58;5.90;;;3.80;;
18455;SDS011;9357;49.900;8.208;2023-10-08T01:01:31;6.00;;;3.97;;
18455;SDS011;9357;49.900;8.208;2023-10-08T01:03:05;6.63;;;4.17;;
18455;SDS011;9357;49.900;8.208;2023-10-08T01:04:46;5.70;;;4.07;;
18455;SDS011;9357;49.900;8.208;2023-10-08T01:06:21;6.67;;;3.60;;
18455;SDS011;9357;49.900;8.208;2023-10-08T01:07:55;7.60;;;4.17;;
18455;SDS011;9357;49.900;8.208;2023-10-08T01:09:27;5.57;;;3.63;;
18455;SDS011;9357;49.900;8.208;2023-10-08T01:11:16;5.20;;;3.43;;
18455;SDS011;9357;49.900;8.208;2023-10-08T01:12:48;5.00;;;3.67;;
18455;SDS011;9357;49.900;8.208;2023-10-08T01:14:35;7.93;;;4.00;;
18455;SDS011;9357;49.900;8.208;2023-10-08T01:16:07;7.20;;;4.13;;
18455;SDS011;9357;49.900;8.208;2023-10-08T01:17:41;8.33;;;4.57;;
18455;SDS011;9357;49.900;8.208;2023-10-08T01:19:24;6.00;;;4.00;;
18455;SDS011;9357;49.900;8.208;2023-10-08T01:20:58;6.00;;;4.03;;
18455;SDS011;9357;49.900;8.208;2023-10-08T01:22:40;4.90;;;3.80;;
18455;SDS011;9357;49.900;8.208;2023-10-08T01:24:13;7.53;;;3.90;;
18455;SDS011;9357;49.900;8.208;2023-10-08T01:25:48;6.53;;;3.73;;
18455;SDS011;9357;49.900;8.208;2023-10-08T01:27:23;8.67;;;4.07;;
18455;SDS011;9357;49.900;8.208;2023-10-08T01:28:55;5.67;;;3.80;;
18455;SDS011;9357;49.900;8.208;2023-10-08T01:30:28;7.80;;;4.10;;
18455;SDS011;9357;49.900;8.208;2023-10-08T01:32:05;7.23;;;3.93;;
18455;SDS011;9357;49.900;8.208;2023-10-08T01:33:42;7.20;;;3.93;;
18455;SDS011;9357;49.900;8.208;2023-10-08T01:35:21;6.03;;;3.70;;
18455;SDS011;9357;49.900;8.208;2023-10-08T01:36:55;5.90;;;4.10;;
18455;SDS011;9357;49.900;8.208;2023-10-08T01:38:29;8.90;;;4.30;;
18455;SDS011;9357;49.900;8.208;2023-10-08T01:40:02;6.63;;;3.87;;
18455;SDS011;9357;49.900;8.208;2023-10-08T01:41:43;6.10;;;3.60;;
18455;SDS011;9357;49.900;8.208;2023-10-08T01:43:18;4.57;;;3.57;;
18455;SDS011;9357;49.900;8.208;2023-10-08T01:44:51;7.37;;;3.63;;
18455;SDS011;9357;49.900;8.208;2023-10-08T01:46:26;5.90;;;3.73;;
18455;SDS011;9357;49.900;8.208;2023-10-08T01:47:59;6.13;;;4.00;;
18455;SDS011;9357;49.900;8.208;2023-10-08T01:49:32;7.03;;;3.93;;
18455;SDS011;9357;49.900;8.208;2023-10-08T01:51:05;5.67;;;3.83;;
18455;SDS011;9357;49.900;8.208;2023-10-08T01:52:42;5.63;;;3.97;;
18455;SDS011;9357;49.900;8.208;2023-10-08T01:54:19;5.77;;;3.80;;
18455;SDS011;9357;49.900;8.208;2023-10-08T01:55:52;7.30;;;3.90;;
18455;SDS011;9357;49.900;8.208;2023-10-08T01:57:25;6.17;;;3.97;;
18455;SDS011;9357;49.900;8.208;2023-10-08T01:58:57;6.97;;;4.07;;
18455;SDS011;9357;49.900;8.208;2023-10-08T02:00:31;6.50;;;3.70;;
18455;SDS011;9357;49.900;8.208;2023-10-08T02:02:05;8.60;;;4.43;;
18455;SDS011;9357;49.900;8.208;2023-10-08T02:03:38;6.50;;;4.00;;
18455;SDS011;9357;49.900;8.208;2023-10-08T02:05:10;6.13;;;3.87;;
18455;SDS011;9357;49.900;8.208;2023-10-08T02:06:46;9.07;;;4.57;;
18455;SDS011;9357;49.900;8.208;2023-10-08T02:08:18;5.60;;;4.07;;
18455;SDS011;9357;49.900;8.208;2023-10-08T02:09:52;6.50;;;4.20;;
18455;SDS011;9357;49.900;8.208;2023-10-08T02:11:24;5.90;;;3.77;;
18455;SDS011;9357;49.900;8.208;2023-10-08T02:12:58;5.70;;;3.50;;
18455;SDS011;9357;49.900;8.208;2023-10-08T02:14:30;4.77;;;3.93;;
18455;SDS011;9357;49.900;8.208;2023-10-08T02:16:06;6.30;;;4.20;;
18455;SDS011;9357;49.900;8.208;2023-10-08T02:17:38;6.83;;;3.93;;
18455;SDS011;9357;49.900;8.208;2023-10-08T02:19:11;7.00;;;4.30;;
18455;SDS011;9357;49.900;8.208;2023-10-08T02:20:44;6.20;;;3.97;;
18455;SDS011;9357;49.900;8.208;2023-10-08T02:22:17;7.80;;;4.10;;
18455;SDS011;9357;49.900;8.208;2023-10-08T02:23:50;6.97;;;4.30;;
18455;SDS011;9357;49.900;8.208;2023-10-08T02:25:25;6.77;;;4.10;;
18455;SDS011;9357;49.900;8.208;2023-10-08T02:26:56;8.13;;;4.60;;
18455;SDS011;9357;49.900;8.208;2023-10-08T02:28:30;6.50;;;4.13;;
18455;SDS011;9357;49.900;8.208;2023-10-08T02:30:04;7.63;;;4.60;;
18455;SDS011;9357;49.900;8.208;2023-10-08T02:31:40;5.73;;;4.13;;
18455;SDS011;9357;49.900;8.208;2023-10-08T02:33:12;7.23;;;4.27;;
18455;SDS011;9357;49.900;8.208;2023-10-08T02:34:47;6.47;;;3.90;;
18455;SDS011;9357;49.900;8.208;2023-10-08T02:36:18;6.83;;;4.10;;
18455;SDS011;9357;49.900;8.208;2023-10-08T02:37:51;6.67;;;4.30;;
18455;SDS011;9357;49.900;8.208;2023-10-08T02:39:23;9.07;;;4.03;;
18455;SDS011;9357;49.900;8.208;2023-10-08T02:40:58;7.50;;;4.67;;
18455;SDS011;9357;49.900;8.208;2023-10-08T02:42:30;8.17;;;4.30;;
18455;SDS011;9357;49.900;8.208;2023-10-08T02:44:04;7.07;;;4.30;;
18455;SDS011;9357;49.900;8.208;2023-10-08T02:45:37;6.60;;;4.50;;
18455;SDS011;9357;49.900;8.208;2023-10-08T02:47:10;6.73;;;4.70;;
18455;SDS011;9357;49.900;8.208;2023-10-08T02:48:44;7.17;;;4.60;;
18455;SDS011;9357;49.900;8.208;2023-10-08T02:50:16;6.13;;;4.40;;
18455;SDS011;9357;49.900;8.208;2023-10-08T02:51:50;6.00;;;4.07;;
18455;SDS011;9357;49.900;8.208;2023-10-08T02:53:23;7.33;;;4.47;;
18455;SDS011;9357;49.900;8.208;2023-10-08T02:54:57;7.73;;;4.33;;
18455;SDS011;9357;49.900;8.208;2023-10-08T02:56:33;8.03;;;4.20;;
18455;SDS011;9357;49.900;8.208;2023-10-08T02:58:04;5.33;;;4.33;;
18455;SDS011;9357;49.900;8.208;2023-10-08T02:59:41;8.13;;;4.53;;
18455;SDS011;9357;49.900;8.208;2023-10-08T03:01:15;7.07;;;4.60;;
18455;SDS011;9357;49.900;8.208;2023-10-08T03:02:48;7.63;;;4.57;;
18455;SDS011;9357;49.900;8.208;2023-10-08T03:04:20;6.10;;;4.30;;
18455;SDS011;9357;49.900;8.208;2023-10-08T03:05:54;6.27;;;4.50;;
18455;SDS011;9357;49.900;8.208;2023-10-08T03:07:27;6.93;;;4.37;;
18455;SDS011;9357;49.900;8.208;2023-10-08T03:09:04;9.20;;;4.50;;
18455;SDS011;9357;49.900;8.208;2023-10-08T03:10:37;7.07;;;4.37;;
18455;SDS011;9357;49.900;8.208;2023-10-08T03:12:10;7.23;;;4.00;;
18455;SDS011;9357;49.900;8.208;2023-10-08T03:13:44;6.73;;;4.50;;
18455;SDS011;9357;49.900;8.208;2023-10-08T03:15:17;6.77;;;4.43;;
18455;SDS011;9357;49.900;8.208;2023-10-08T03:17:00;7.03;;;4.63;;
18455;SDS011;9357;49.900;8.208;2023-10-08T03:18:39;6.63;;;4.97;;
18455;SDS011;9357;49.900;8.208;2023-10-08T03:20:14;6.60;;;4.33;;
18455;SDS011;9357;49.900;8.208;2023-10-08T03:22:01;6.37;;;4.30;;
18455;SDS011;9357;49.900;8.208;2023-10-08T03:23:36;7.90;;;4.50;;
18455;SDS011;9357;49.900;8.208;2023-10-08T03:25:15;6.20;;;4.67;;
18455;SDS011;9357;49.900;8.208;2023-10-08T03:26:51;7.50;;;4.63;;
18455;SDS011;9357;49.900;8.208;2023-10-08T03:28:29;7.63;;;4.43;;
18455;SDS011;9357;49.900;8.208;2023-10-08T03:30:06;9.27;;;4.37;;
18455;SDS011;9357;49.900;8.208;2023-10-08T03:31:44;5.90;;;4.00;;
18455;SDS011;9357;49.900;8.208;2023-10-08T03:33:21;5.67;;;4.30;;
18455;SDS011;9357;49.900;8.208;2023-10-08T03:34:55;7.67;;;4.77;;
18455;SDS011;9357;49.900;8.208;2023-10-08T03:36:27;6.83;;;4.40;;
18455;SDS011;9357;49.900;8.208;2023-10-08T03:38:05;8.93;;;4.63;;
18455;SDS011;9357;49.900;8.208;2023-10-08T03:39:52;7.33;;;4.67;;
18455;SDS011;9357;49.900;8.208;2023-10-08T03:41:34;8.30;;;4.70;;
18455;SDS011;9357;49.900;8.208;2023-10-08T03:43:11;7.27;;;4.50;;
18455;SDS011;9357;49.900;8.208;2023-10-08T03:44:52;7.20;;;4.40;;
18455;SDS011;9357;49.900;8.208;2023-10-08T03:46:29;8.93;;;4.43;;
18455;SDS011;9357;49.900;8.208;2023-10-08T03:48:02;7.37;;;4.47;;
18455;SDS011;9357;49.900;8.208;2023-10-08T03:49:38;7.27;;;4.70;;
18455;SDS011;9357;49.900;8.208;2023-10-08T03:51:17;8.57;;;4.70;;
18455;SDS011;9357;49.900;8.208;2023-10-08T03:52:51;6.53;;;4.53;;
18455;SDS011;9357;49.900;8.208;2023-10-08T03:54:26;7.20;;;4.30;;
18455;SDS011;9357;49.900;8.208;2023-10-08T03:56:01;7.53;;;4.30;;
18455;SDS011;9357;49.900;8.208;2023-10-08T03:57:37;7.20;;;4.23;;
18455;SDS011;9357;49.900;8.208;2023-10-08T03:59:18;7.47;;;5.00;;
18455;SDS011;9357;49.900;8.208;2023-10-08T04:01:02;10.13;;;4.50;;
18455;SDS011;9357;49.900;8.208;2023-10-08T04:02:39;6.80;;;4.97;;
18455;SDS011;9357;49.900;8.208;2023-10-08T04:04:17;6.60;;;4.37;;
18455;SDS011;9357;49.900;8.208;2023-10-08T04:05:50;7.97;;;5.20;;
18455;SDS011;9357;49.900;8.208;2023-10-08T04:07:37;9.17;;;5.10;;
18455;SDS011;9357;49.900;8.208;2023-10-08T04:09:31;7.20;;;4.40;;
18455;SDS011;9357;49.900;8.208;2023-10-08T04:11:06;6.97;;;4.37;;
18455;SDS011;9357;49.900;8.208;2023-10-08T04:12:39;5.77;;;4.60;;
18455;SDS011;9357;49.900;8.208;2023-10-08T04:14:15;5.80;;;4.80;;
18455;SDS011;9357;49.900;8.208;2023-10-08T04:15:47;6.30;;;4.80;;
18455;SDS011;9357;49.900;8.208;2023-10-08T04:17:21;7.80;;;4.80;;
18455;SDS011;9357;49.900;8.208;2023-10-08T04:18:54;7.13;;;4.50;;
18455;SDS011;9357;49.900;8.208;2023-10-08T04:20:27;8.27;;;4.90;;
18455;SDS011;9357;49.900;8.208;2023-10-08T04:22:04;7.07;;;4.50;;
18455;SDS011;9357;49.900;8.208;2023-10-08T04:23:46;7.03;;;4.57;;
18455;SDS011;9357;49.900;8.208;2023-10-08T04:25:22;7.73;;;4.57;;
18455;SDS011;9357;49.900;8.208;2023-10-08T04:26:56;8.10;;;4.77;;
18455;SDS011;9357;49.900;8.208;2023-10-08T04:28:28;9.63;;;4.80;;
18455;SDS011;9357;49.900;8.208;2023-10-08T04:30:06;5.57;;;4.43;;
18455;SDS011;9357;49.900;8.208;2023-10-08T04:31:41;7.13;;;4.73;;
18455;SDS011;9357;49.900;8.208;2023-10-08T04:33:19;9.00;;;4.83;;
18455;SDS011;9357;49.900;8.208;2023-10-08T04:34:51;7.23;;;4.63;;
18455;SDS011;9357;49.900;8.208;2023-10-08T04:36:27;7.03;;;4.20;;
18455;SDS011;9357;49.900;8.208;2023-10-08T04:37:59;8.13;;;4.60;;
18455;SDS011;9357;49.900;8.208;2023-10-08T04:39:33;6.83;;;4.67;;
18455;SDS011;9357;49.900;8.208;2023-10-08T04:41:05;7.90;;;4.77;;
18455;SDS011;9357;49.900;8.208;2023-10-08T04:42:40;8.70;;;4.83;;
18455;SDS011;9357;49.900;8.208;2023-10-08T04:44:15;7.10;;;4.70;;
18455;SDS011;9357;49.900;8.208;2023-10-08T04:45:48;8.00;;;4.30;;
18455;SDS011;9357;49.900;8.208;2023-10-08T04:47:20;7.47;;;4.20;;
18455;SDS011;9357;49.900;8.208;2023-10-08T04:49:05;8.63;;;5.00;;
18455;SDS011;9357;49.900;8.208;2023-10-08T04:50:39;6.93;;;4.50;;
18455;SDS011;9357;49.900;8.208;2023-10-08T04:52:15;9.53;;;4.70;;
18455;SDS011;9357;49.900;8.208;2023-10-08T04:53:50;8.87;;;4.87;;
18455;SDS011;9357;49.900;8.208;2023-10-08T04:55:22;6.57;;;4.37;;
18455;SDS011;9357;49.900;8.208;2023-10-08T04:57:00;7.73;;;4.23;;
18455;SDS011;9357;49.900;8.208;2023-10-08T04:58:37;5.57;;;4.30;;
18455;SDS011;9357;49.900;8.208;2023-10-08T05:00:11;6.90;;;4.33;;
18455;SDS011;9357;49.900;8.208;2023-10-08T05:01:47;8.37;;;4.87;;
18455;SDS011;9357;49.900;8.208;2023-10-08T05:03:19;9.20;;;4.63;;
18455;SDS011;9357;49.900;8.208;2023-10-08T05:04:55;5.53;;;4.23;;
18455;SDS011;9357;49.900;8.208;2023-10-08T05:06:38;6.33;;;4.33;;
18455;SDS011;9357;49.900;8.208;2023-10-08T05:08:32;7.40;;;4.20;;
18455;SDS011;9357;49.900;8.208;2023-10-08T05:10:10;7.47;;;4.23;;
18455;SDS011;9357;49.900;8.208;2023-10-08T05:12:01;8.10;;;4.40;;
18455;SDS011;9357;49.900;8.208;2023-10-08T05:13:42;5.23;;;3.97;;
18455;SDS011;9357;49.900;8.208;2023-10-08T05:15:29;8.00;;;4.40;;
18455;SDS011;9357;49.900;8.208;2023-10-08T05:17:08;8.80;;;4.93;;
18455;SDS011;9357;49.900;8.208;2023-10-08T05:18:53;8.77;;;4.80;;
18455;SDS011;9357;49.900;8.208;2023-10-08T05:20:40;7.33;;;4.67;;
18455;SDS011;9357;49.900;8.208;2023-10-08T05:22:30;8.07;;;4.70;;
18455;SDS011;9357;49.900;8.208;2023-10-08T05:24:15;7.40;;;4.93;;
18455;SDS011;9357;49.900;8.208;2023-10-08T05:25:54;7.93;;;4.67;;
18455;SDS011;9357;49.900;8.208;2023-10-08T05:27:29;9.17;;;4.50;;
18455;SDS011;9357;49.900;8.208;2023-10-08T05:29:09;8.80;;;4.57;;
18455;SDS011;9357;49.900;8.208;2023-10-08T05:31:06;7.70;;;4.80;;
18455;SDS011;9357;49.900;8.208;2023-10-08T05:33:03;6.83;;;4.23;;
18455;SDS011;9357;49.900;8.208;2023-10-08T05:34:55;7.60;;;4.40;;
18455;SDS011;9357;49.900;8.208;2023-10-08T05:36:49;6.73;;;4.37;;
18455;SDS011;9357;49.900;8.208;2023-10-08T05:38:22;5.97;;;4.67;;
18455;SDS011;9357;49.900;8.208;2023-10-08T05:40:09;7.53;;;4.53;;
18455;SDS011;9357;49.900;8.208;2023-10-08T05:42:09;7.77;;;4.67;;
18455;SDS011;9357;49.900;8.208;2023-10-08T05:43:48;6.77;;;4.00;;
18455;SDS011;9357;49.900;8.208;2023-10-08T05:45:26;7.53;;;4.37;;
18455;SDS011;9357;49.900;8.208;2023-10-08T05:47:04;9.67;;;4.60;;
18455;SDS011;9357;49.900;8.208;2023-10-08T05:49:00;5.87;;;4.23;;
18455;SDS011;9357;49.900;8.208;2023-10-08T05:50:33;8.83;;;4.83;;
18455;SDS011;9357;49.900;8.208;2023-10-08T05:52:15;8.43;;;4.90;;
18455;SDS011;9357;49.900;8.208;2023-10-08T05:53:59;7.57;;;4.50;;
18455;SDS011;9357;49.900;8.208;2023-10-08T05:55:38;7.50;;;4.70;;
18455;SDS011;9357;49.900;8.208;2023-10-08T05:57:18;8.33;;;4.53;;
18455;SDS011;9357;49.900;8.208;2023-10-08T05:59:09;8.37;;;4.50;;
18455;SDS011;9357;49.900;8.208;2023-10-08T06:00:49;7.43;;;4.43;;
18455;SDS011;9357;49.900;8.208;2023-10-08T06:02:41;6.30;;;4.53;;
18455;SDS011;9357;49.900;8.208;2023-10-08T06:04:31;9.50;;;4.77;;
18455;SDS011;9357;49.900;8.208;2023-10-08T06:06:24;9.73;;;4.70;;
18455;SDS011;9357;49.900;8.208;2023-10-08T06:08:10;7.23;;;4.50;;
18455;SDS011;9357;49.900;8.208;2023-10-08T06:09:52;8.50;;;4.60;;
18455;SDS011;9357;49.900;8.208;2023-10-08T06:11:34;9.13;;;4.90;;
18455;SDS011;9357;49.900;8.208;2023-10-08T06:13:16;6.67;;;4.50;;
18455;SDS011;9357;49.900;8.208;2023-10-08T06:15:00;7.20;;;4.90;;
18455;SDS011;9357;49.900;8.208;2023-10-08T06:16:39;9.50;;;4.97;;
18455;SDS011;9357;49.900;8.208;2023-10-08T06:18:18;8.30;;;4.47;;
18455;SDS011;9357;49.900;8.208;2023-10-08T06:19:57;7.70;;;4.87;;
18455;SDS011;9357;49.900;8.208;2023-10-08T06:21:29;8.73;;;4.97;;
18455;SDS011;9357;49.900;8.208;2023-10-08T06:23:01;7.43;;;4.30;;
18455;SDS011;9357;49.900;8.208;2023-10-08T06:24:39;6.67;;;4.80;;
18455;SDS011;9357;49.900;8.208;2023-10-08T06:26:11;5.03;;;4.53;;
18455;SDS011;9357;49.900;8.208;2023-10-08T06:27:46;8.03;;;4.97;;
18455;SDS011;9357;49.900;8.208;2023-10-08T06:29:18;9.47;;;5.27;;
18455;SDS011;9357;49.900;8.208;2023-10-08T06:30:57;7.07;;;5.20;;
18455;SDS011;9357;49.900;8.208;2023-10-08T06:32:30;8.33;;;5.00;;
18455;SDS011;9357;49.900;8.208;2023-10-08T06:34:02;10.97;;;5.30;;
18455;SDS011;9357;49.900;8.208;2023-10-08T06:35:35;9.13;;;5.13;;
18455;SDS011;9357;49.900;8.208;2023-10-08T06:37:08;10.60;;;5.60;;
18455;SDS011;9357;49.900;8.208;2023-10-08T06:38:41;6.57;;;4.53;;
18455;SDS011;9357;49.900;8.208;2023-10-08T06:40:15;7.67;;;4.77;;
18455;SDS011;9357;49.900;8.208;2023-10-08T06:42:17;9.07;;;5.30;;
18455;SDS011;9357;49.900;8.208;2023-10-08T06:43:49;7.63;;;4.77;;
18455;SDS011;9357;49.900;8.208;2023-10-08T06:45:33;7.20;;;4.70;;
18455;SDS011;9357;49.900;8.208;2023-10-08T06:47:07;7.37;;;4.50;;
18455;SDS011;9357;49.900;8.208;2023-10-08T06:48:41;7.13;;;5.07;;
18455;SDS011;9357;49.900;8.208;2023-10-08T06:50:13;9.67;;;5.03;;
18455;SDS011;9357;49.900;8.208;2023-10-08T06:51:48;8.87;;;4.53;;
18455;SDS011;9357;49.900;8.208;2023-10-08T06:53:21;8.37;;;4.17;;
18455;SDS011;9357;49.900;8.208;2023-10-08T06:54:54;8.83;;;4.97;;
18455;SDS011;9357;49.900;8.208;2023-10-08T06:56:26;9.73;;;4.80;;
18455;SDS011;9357;49.900;8.208;2023-10-08T06:58:01;10.23;;;5.03;;
18455;SDS011;9357;49.900;8.208;2023-10-08T06:59:36;11.50;;;5.37;;
18455;SDS011;9357;49.900;8.208;2023-10-08T07:01:13;8.13;;;4.57;;
18455;SDS011;9357;49.900;8.208;2023-10-08T07:02:52;8.60;;;4.60;;
18455;SDS011;9357;49.900;8.208;2023-10-08T07:04:26;9.63;;;4.77;;
18455;SDS011;9357;49.900;8.208;2023-10-08T07:06:01;8.43;;;4.53;;
18455;SDS011;9357;49.900;8.208;2023-10-08T07:07:33;8.50;;;4.63;;
18455;SDS011;9357;49.900;8.208;2023-10-08T07:09:11;7.77;;;5.10;;
18455;SDS011;9357;49.900;8.208;2023-10-08T07:10:53;8.30;;;4.77;;
18455;SDS011;9357;49.900;8.208;2023-10-08T07:12:27;7.97;;;4.57;;
18455;SDS011;9357;49.900;8.208;2023-10-08T07:14:00;6.90;;;4.53;;
18455;SDS011;9357;49.900;8.208;2023-10-08T07:15:35;6.90;;;4.07;;
18455;SDS011;9357;49.900;8.208;2023-10-08T07:17:09;8.13;;;4.33;;
18455;SDS011;9357;49.900;8.208;2023-10-08T07:18:51;5.97;;;4.10;;
18455;SDS011;9357;49.900;8.208;2023-10-08T07:20:23;7.47;;;4.53;;
18455;SDS011;9357;49.900;8.208;2023-10-08T07:21:57;7.50;;;4.30;;
18455;SDS011;9357;49.900;8.208;2023-10-08T07:23:34;7.10;;;4.50;;
18455;SDS011;9357;49.900;8.208;2023-10-08T07:25:06;6.87;;;4.47;;
18455;SDS011;9357;49.900;8.208;2023-10-08T07:26:40;7.00;;;4.43;;
18455;SDS011;9357;49.900;8.208;2023-10-08T07:28:18;6.83;;;4.60;;
18455;SDS011;9357;49.900;8.208;2023-10-08T07:29:52;6.67;;;3.83;;
18455;SDS011;9357;49.900;8.208;2023-10-08T07:31:28;6.13;;;4.30;;
18455;SDS011;9357;49.900;8.208;2023-10-08T07:33:01;6.87;;;4.03;;
18455;SDS011;9357;49.900;8.208;2023-10-08T07:34:35;9.40;;;4.17;;
18455;SDS011;9357;49.900;8.208;2023-10-08T07:36:07;10.13;;;4.30;;
18455;SDS011;9357;49.900;8.208;2023-10-08T07:37:45;6.77;;;4.63;;
18455;SDS011;9357;49.900;8.208;2023-10-08T07:39:18;7.20;;;4.20;;
18455;SDS011;9357;49.900;8.208;2023-10-08T07:41:04;7.67;;;4.23;;
18455;SDS011;9357;49.900;8.208;2023-10-08T07:42:37;8.27;;;5.00;;
18455;SDS011;9357;49.900;8.208;2023-10-08T07:44:09;5.50;;;4.03;;
18455;SDS011;9357;49.900;8.208;2023-10-08T07:45:44;8.63;;;4.03;;
18455;SDS011;9357;49.900;8.208;2023-10-08T07:47:16;7.93;;;3.90;;
18455;SDS011;9357;49.900;8.208;2023-10-08T07:48:52;7.13;;;4.30;;
18455;SDS011;9357;49.900;8.208;2023-10-08T07:50:25;7.27;;;4.30;;
18455;SDS011;9357;49.900;8.208;2023-10-08T07:52:00;7.07;;;4.47;;
18455;SDS011;9357;49.900;8.208;2023-10-08T07:53:32;8.70;;;4.30;;
18455;SDS011;9357;49.900;8.208;2023-10-08T07:55:09;6.63;;;4.43;;
18455;SDS011;9357;49.900;8.208;2023-10-08T07:56:41;9.00;;;4.73;;
18455;SDS011;9357;49.900;8.208;2023-10-08T07:58:15;6.57;;;4.13;;
18455;SDS011;9357;49.900;8.208;2023-10-08T07:59:47;7.53;;;4.47;;
18455;SDS011;9357;49.900;8.208;2023-10-08T08:01:27;6.47;;;4.13;;
18455;SDS011;9357;49.900;8.208;2023-10-08T08:02:59;6.87;;;4.30;;
18455;SDS011;9357;49.900;8.208;2023-10-08T08:04:36;5.57;;;4.10;;
18455;SDS011;9357;49.900;8.208;2023-10-08T08:06:09;7.60;;;4.40;;
18455;SDS011;9357;49.900;8.208;2023-10-08T08:07:41;6.43;;;4.30;;
18455;SDS011;9357;49.900;8.208;2023-10-08T08:09:14;6.47;;;4.20;;
18455;SDS011;9357;49.900;8.208;2023-10-08T08:10:50;5.57;;;4.60;;
18455;SDS011;9357;49.900;8.208;2023-10-08T08:12:28;5.77;;;4.10;;
18455;SDS011;9357;49.900;8.208;2023-10-08T08:14:03;6.47;;;4.10;;
18455;SDS011;9357;49.900;8.208;2023-10-08T08:15:39;7.03;;;4.43;;
18455;SDS011;9357;49.900;8.208;2023-10-08T08:17:20;8.37;;;4.47;;
18455;SDS011;9357;49.900;8.208;2023-10-08T08:18:54;7.10;;;4.53;;
18455;SDS011;9357;49.900;8.208;2023-10-08T08:20:28;6.70;;;3.97;;
18455;SDS011;9357;49.900;8.208;2023-10-08T08:22:10;7.17;;;4.20;;
18455;SDS011;9357;49.900;8.208;2023-10-08T08:23:52;5.80;;;3.97;;
18455;SDS011;9357;49.900;8.208;2023-10-08T08:25:36;7.20;;;4.27;;
18455;SDS011;9357;49.900;8.208;2023-10-08T08:27:16;5.77;;;4.40;;
18455;SDS011;9357;49.900;8.208;2023-10-08T08:28:57;7.83;;;4.47;;
18455;SDS011;9357;49.900;8.208;2023-10-08T08:30:32;6.00;;;4.50;;
18455;SDS011;9357;49.900;8.208;2023-10-08T08:32:07;7.27;;;4.40;;
18455;SDS011;9357;49.900;8.208;2023-10-08T08:33:42;6.03;;;4.43;;
18455;SDS011;9357;49.900;8.208;2023-10-08T08:35:33;6.47;;;4.40;;
18455;SDS011;9357;49.900;8.208;2023-10-08T08:37:06;5.97;;;4.30;;
18455;SDS011;9357;49.900;8.208;2023-10-08T08:38:39;7.90;;;4.80;;
18455;SDS011;9357;49.900;8.208;2023-10-08T08:40:11;7.37;;;4.07;;
18455;SDS011;9357;49.900;8.208;2023-10-08T08:41:48;5.73;;;4.37;;
18455;SDS011;9357;49.900;8.208;2023-10-08T08:43:24;6.67;;;4.33;;
18455;SDS011;9357;49.900;8.208;2023-10-08T08:44:57;6.73;;;4.60;;
18455;SDS011;9357;49.900;8.208;2023-10-08T08:46:32;6.63;;;4.40;;
18455;SDS011;9357;49.900;8.208;2023-10-08T08:48:06;7.37;;;4.63;;
18455;SDS011;9357;49.900;8.208;2023-10-08T08:49:40;6.27;;;4.33;;
18455;SDS011;9357;49.900;8.208;2023-10-08T08:51:14;8.33;;;4.33;;
18455;SDS011;9357;49.900;8.208;2023-10-08T08:52:47;10.00;;;4.97;;
18455;SDS011;9357;49.900;8.208;2023-10-08T08:54:18;8.23;;;4.30;;
18455;SDS011;9357;49.900;8.208;2023-10-08T08:55:52;7.27;;;4.40;;
18455;SDS011;9357;49.900;8.208;2023-10-08T08:57:26;8.57;;;4.40;;
18455;SDS011;9357;49.900;8.208;2023-10-08T08:58:58;7.53;;;4.33;;
18455;SDS011;9357;49.900;8.208;2023-10-08T09:00:31;8.97;;;4.93;;
18455;SDS011;9357;49.900;8.208;2023-10-08T09:02:05;6.40;;;4.50;;
18455;SDS011;9357;49.900;8.208;2023-10-08T09:03:39;8.37;;;4.60;;
18455;SDS011;9357;49.900;8.208;2023-10-08T09:05:14;6.17;;;4.20;;
18455;SDS011;9357;49.900;8.208;2023-10-08T09:06:55;6.53;;;4.20;;
18455;SDS011;9357;49.900;8.208;2023-10-08T09:08:32;5.90;;;4.23;;
18455;SDS011;9357;49.900;8.208;2023-10-08T09:10:05;7.80;;;4.27;;
18455;SDS011;9357;49.900;8.208;2023-10-08T09:11:43;6.33;;;4.00;;
18455;SDS011;9357;49.900;8.208;2023-10-08T09:13:15;5.63;;;4.40;;
18455;SDS011;9357;49.900;8.208;2023-10-08T09:14:52;6.90;;;4.40;;
18455;SDS011;9357;49.900;8.208;2023-10-08T09:16:25;7.53;;;4.27;;
18455;SDS011;9357;49.900;8.208;2023-10-08T09:17:58;6.43;;;4.47;;
18455;SDS011;9357;49.900;8.208;2023-10-08T09:19:35;8.87;;;4.63;;
18455;SDS011;9357;49.900;8.208;2023-10-08T09:21:09;7.67;;;4.57;;
18455;SDS011;9357;49.900;8.208;2023-10-08T09:22:43;8.90;;;4.30;;
18455;SDS011;9357;49.900;8.208;2023-10-08T09:24:18;8.30;;;4.37;;
18455;SDS011;9357;49.900;8.208;2023-10-08T09:25:51;5.63;;;4.20;;
18455;SDS011;9357;49.900;8.208;2023-10-08T09:27:33;7.30;;;4.27;;
18455;SDS011;9357;49.900;8.208;2023-10-08T09:29:08;6.80;;;4.20;;
18455;SDS011;9357;49.900;8.208;2023-10-08T09:30:43;5.83;;;3.87;;
18455;SDS011;9357;49.900;8.208;2023-10-08T09:32:17;7.33;;;4.50;;
18455;SDS011;9357;49.900;8.208;2023-10-08T09:33:55;10.87;;;4.60;;
18455;SDS011;9357;49.900;8.208;2023-10-08T09:35:28;7.87;;;4.70;;
18455;SDS011;9357;49.900;8.208;2023-10-08T09:37:02;8.97;;;4.37;;
18455;SDS011;9357;49.900;8.208;2023-10-08T09:38:36;7.03;;;4.13;;
18455;SDS011;9357;49.900;8.208;2023-10-08T09:40:08;8.03;;;4.70;;
18455;SDS011;9357;49.900;8.208;2023-10-08T09:41:43;7.13;;;4.43;;
18455;SDS011;9357;49.900;8.208;2023-10-08T09:43:18;6.80;;;4.37;;
18455;SDS011;9357;49.900;8.208;2023-10-08T09:44:51;7.20;;;4.50;;
18455;SDS011;9357;49.900;8.208;2023-10-08T09:46:26;7.03;;;4.43;;
18455;SDS011;9357;49.900;8.208;2023-10-08T09:48:01;6.70;;;4.70;;
18455;SDS011;9357;49.900;8.208;2023-10-08T09:49:38;6.47;;;4.43;;